Time;durP1;ratioP1;P1;durP2;ratioP2;P2;SDS_P1;SDS_P2;PMS_P1;PMS_P2;Temp;Humidity;BMP_temperature;BMP_pressure;BME280_temperature;BME280_humidity;BME280_pressure;Samples;Min_cycle;Max_cycle;Signal;HPM_P1;HPM_P2
2021/01/10 00:00:28;;;;;;;51.08;35.40;;;4.80;71.10;;;;;;5045155;28;20087;-79
2021/01/10 00:02:56;;;;;;;46.33;36.15;;;4.80;71.10;;;;;;5048962;28;20124;-80
2021/01/10 00:05:30;;;;;;;57.38;35.70;;;4.70;70.90;;;;;;5048534;28;20509;-78
2021/01/10 00:07:57;;;;;;;53.42;35.70;;;4.70;70.90;;;;;;5048807;28;20037;-78
2021/01/10 00:10:24;;;;;;;47.95;35.40;;;4.70;71.00;;;;;;5047142;28;20073;-80
2021/01/10 00:12:50;;;;;;;52.38;33.85;;;4.70;71.00;;;;;;5047968;28;20041;-80
2021/01/10 00:15:18;;;;;;;48.40;35.30;;;4.70;71.00;;;;;;5048690;28;20463;-80
2021/01/10 00:17:48;;;;;;;43.63;32.33;;;4.70;71.00;;;;;;5048208;28;20029;-80
2021/01/10 00:20:15;;;;;;;46.10;33.38;;;4.70;71.00;;;;;;5049145;28;20028;-79
2021/01/10 00:22:41;;;;;;;51.80;35.47;;;4.70;71.00;;;;;;5047887;28;20025;-80
2021/01/10 00:25:10;;;;;;;51.17;34.95;;;4.70;71.00;;;;;;5048035;28;20036;-81
2021/01/10 00:27:37;;;;;;;46.63;34.28;;;4.70;71.00;;;;;;5048449;28;20059;-80
2021/01/10 00:30:07;;;;;;;49.72;34.40;;;4.70;71.00;;;;;;5047797;28;20025;-79
2021/01/10 00:32:33;;;;;;;54.67;36.45;;;4.70;71.00;;;;;;5048312;28;20099;-79
2021/01/10 00:34:59;;;;;;;46.05;34.85;;;4.70;71.00;;;;;;5046148;28;20056;-77
2021/01/10 00:37:25;;;;;;;50.33;34.42;;;4.70;71.00;;;;;;5046562;28;20040;-79
2021/01/10 00:39:52;;;;;;;46.10;33.30;;;4.70;71.00;;;;;;5046806;28;20083;-79
2021/01/10 00:42:18;;;;;;;47.75;33.35;;;4.70;71.00;;;;;;5047651;28;20498;-78
2021/01/10 00:44:46;;;;;;;52.90;35.67;;;4.70;71.00;;;;;;5047907;28;20029;-78
2021/01/10 00:47:17;;;;;;;52.67;35.63;;;4.70;71.00;;;;;;5046283;28;20495;-78
2021/01/10 00:49:47;;;;;;;49.25;33.85;;;4.60;70.80;;;;;;5046250;28;20029;-78
2021/01/10 00:52:13;;;;;;;50.40;33.65;;;4.60;70.80;;;;;;5046524;28;20051;-79
2021/01/10 00:54:40;;;;;;;45.65;32.22;;;4.60;70.90;;;;;;5046142;28;20104;-78
2021/01/10 00:57:08;;;;;;;46.42;32.92;;;4.70;71.10;;;;;;5047076;28;20025;-79
2021/01/10 00:59:34;;;;;;;41.13;31.48;;;4.60;70.90;;;;;;5045771;28;20029;-78
2021/01/10 01:02:02;;;;;;;41.70;30.80;;;4.60;70.90;;;;;;5047359;28;20041;-78
2021/01/10 01:04:28;;;;;;;43.33;33.58;;;4.60;70.90;;;;;;5045795;28;20341;-77
2021/01/10 01:06:56;;;;;;;49.72;33.67;;;4.60;70.90;;;;;;5046507;28;20029;-80
2021/01/10 01:09:23;;;;;;;51.95;36.20;;;4.60;70.90;;;;;;5046554;28;20055;-81
2021/01/10 01:11:49;;;;;;;49.20;36.13;;;4.60;71.00;;;;;;5046338;28;20071;-80
2021/01/10 01:14:15;;;;;;;45.08;31.75;;;4.60;71.00;;;;;;5047020;28;20033;-81
2021/01/10 01:16:41;;;;;;;42.30;31.42;;;4.60;71.00;;;;;;5048296;28;20531;-80
2021/01/10 01:19:08;;;;;;;44.47;33.30;;;4.60;70.90;;;;;;5048163;28;20043;-81
2021/01/10 01:21:34;;;;;;;44.15;33.08;;;4.60;70.90;;;;;;5046728;28;20037;-79
2021/01/10 01:24:00;;;;;;;43.38;32.72;;;4.60;70.90;;;;;;5048295;28;20037;-80
2021/01/10 01:26:27;;;;;;;44.97;33.58;;;4.60;70.90;;;;;;5046721;28;20032;-81
2021/01/10 01:28:53;;;;;;;43.95;32.83;;;4.70;71.10;;;;;;5047377;28;20531;-82
2021/01/10 01:31:22;;;;;;;41.60;30.92;;;4.60;70.90;;;;;;5031376;28;20044;-82
2021/01/10 01:33:49;;;;;;;42.92;33.03;;;4.60;70.90;;;;;;5047662;28;20056;-79
2021/01/10 01:36:17;;;;;;;41.30;33.05;;;4.60;70.80;;;;;;5048003;28;20062;-80
2021/01/10 01:38:44;;;;;;;39.63;32.03;;;4.70;71.00;;;;;;5048673;28;20036;-81
2021/01/10 01:41:11;;;;;;;42.60;31.80;;;4.70;71.00;;;;;;5047564;28;20226;-82
2021/01/10 01:43:38;;;;;;;40.70;31.77;;;4.70;71.00;;;;;;5047744;28;20123;-80
2021/01/10 01:46:07;;;;;;;45.35;34.08;;;4.70;71.00;;;;;;5047254;28;20120;-81
2021/01/10 01:48:35;;;;;;;41.60;33.53;;;4.70;71.00;;;;;;5047588;28;20165;-81
2021/01/10 01:51:01;;;;;;;43.20;32.00;;;4.70;71.00;;;;;;5047479;28;20040;-80
2021/01/10 01:53:27;;;;;;;41.08;30.88;;;4.70;71.00;;;;;;5048042;28;20056;-80
2021/01/10 01:55:54;;;;;;;43.20;31.88;;;4.70;71.00;;;;;;5047083;28;20145;-79
2021/01/10 01:58:21;;;;;;;41.08;31.05;;;4.60;70.80;;;;;;5045004;28;20053;-79
2021/01/10 02:00:47;;;;;;;43.72;32.65;;;4.60;70.80;;;;;;5045232;28;20036;-80
2021/01/10 02:03:33;;;;;;;39.00;32.17;;;4.60;70.80;;;;;;5046810;28;20040;-79
2021/01/10 02:06:04;;;;;;;37.20;31.67;;;4.60;70.90;;;;;;5046354;28;20055;-79
2021/01/10 02:08:34;;;;;;;43.55;33.10;;;4.60;70.90;;;;;;5045208;28;20032;-79
2021/01/10 02:11:02;;;;;;;44.00;33.22;;;4.50;70.70;;;;;;5046650;28;20032;-80
2021/01/10 02:13:32;;;;;;;35.90;30.25;;;4.50;70.70;;;;;;5046386;28;20788;-79
2021/01/10 02:16:00;;;;;;;44.85;31.55;;;4.50;70.70;;;;;;5045594;28;20351;-80
2021/01/10 02:18:29;;;;;;;36.58;30.85;;;4.40;70.60;;;;;;5046527;28;20028;-79
2021/01/10 02:21:00;;;;;;;43.22;31.85;;;4.40;70.60;;;;;;5047000;28;20032;-79
2021/01/10 02:23:30;;;;;;;39.30;29.63;;;4.40;70.60;;;;;;5046358;28;20495;-79
2021/01/10 02:25:57;;;;;;;40.20;31.42;;;4.30;70.50;;;;;;5045880;28;20468;-78
2021/01/10 02:28:26;;;;;;;40.25;30.58;;;4.20;70.40;;;;;;5046167;28;20093;-78
2021/01/10 02:30:54;;;;;;;40.22;31.35;;;4.20;70.40;;;;;;5046208;28;20468;-80
2021/01/10 02:33:54;;;;;;;37.05;30.45;;;4.20;70.50;;;;;;5047654;28;20048;-79
2021/01/10 02:37:09;;;;;;;37.38;30.02;;;4.10;70.30;;;;;;5047419;28;20417;-79
2021/01/10 02:39:47;;;;;;;40.53;31.77;;;4.10;70.40;;;;;;5047310;28;20033;-79
2021/01/10 02:42:35;;;;;;;42.15;29.50;;;4.00;70.20;;;;;;5045395;28;20410;-79
2021/01/10 02:45:09;;;;;;;40.20;31.23;;;4.00;70.20;;;;;;5047384;28;20032;-80
2021/01/10 02:47:37;;;;;;;;;;;3.90;70.10;;;;;;5031006;28;20136;-79
2021/01/10 02:50:05;;;;;;;33.00;28.00;;;3.90;70.20;;;;;;5030499;28;19913;-80
2021/01/10 02:52:31;;;;;;;42.88;32.70;;;3.80;70.10;;;;;;5030423;28;20060;-79
2021/01/10 02:54:59;;;;;;;35.80;30.15;;;3.80;70.10;;;;;;5029083;28;20445;-78
2021/01/10 02:57:32;;;;;;;40.67;30.45;;;3.70;69.90;;;;;;5030803;28;20053;-79
2021/01/10 03:00:02;;;;;;;35.90;29.40;;;3.70;70.00;;;;;;5029621;28;20029;-80
2021/01/10 03:02:28;;;;;;;44.30;32.90;;;3.60;69.90;;;;;;5030199;28;20026;-80
2021/01/10 03:04:55;;;;;;;41.00;30.77;;;3.60;69.90;;;;;;5030176;28;20033;-79
2021/01/10 03:07:21;;;;;;;44.53;31.77;;;3.50;69.80;;;;;;5030588;28;20401;-80
2021/01/10 03:09:47;;;;;;;39.33;30.55;;;3.50;69.80;;;;;;5030527;28;20026;-80
2021/01/10 03:12:25;;;;;;;36.95;29.13;;;3.40;69.70;;;;;;5030410;28;20052;-80
2021/01/10 03:14:53;;;;;;;42.72;31.52;;;3.40;69.70;;;;;;5030404;28;20052;-80
2021/01/10 03:17:35;;;;;;;38.60;30.40;;;3.30;69.60;;;;;;5030216;28;20473;-80
2021/01/10 03:20:03;;;;;;;43.85;28.83;;;3.30;69.70;;;;;;5030588;28;20034;-79
2021/01/10 03:22:29;;;;;;;35.40;28.60;;;3.20;69.50;;;;;;5030473;28;20018;-80
2021/01/10 03:24:55;;;;;;;39.75;29.55;;;3.20;69.60;;;;;;5029029;28;20028;-80
2021/01/10 03:27:21;;;;;;;37.65;30.02;;;3.10;69.70;;;;;;5031122;28;20033;-79
2021/01/10 03:29:48;;;;;;;34.90;28.50;;;3.10;69.50;;;;;;5030094;28;20057;-79
2021/01/10 03:32:14;;;;;;;39.45;29.73;;;3.10;69.50;;;;;;5030160;28;20037;-79
2021/01/10 03:34:41;;;;;;;36.72;29.42;;;3.00;69.40;;;;;;5029843;28;20504;-80
2021/01/10 03:37:07;;;;;;;35.97;29.20;;;3.00;69.40;;;;;;5035525;28;20044;-80
2021/01/10 03:39:34;;;;;;;44.10;32.05;;;3.00;69.40;;;;;;5056593;28;20387;-80
2021/01/10 03:42:00;;;;;;;41.05;29.55;;;2.90;69.30;;;;;;5039131;28;20160;-80
2021/01/10 03:44:26;;;;;;;36.70;29.17;;;2.90;69.30;;;;;;5055481;28;20056;-79
2021/01/10 03:46:53;;;;;;;38.17;29.63;;;2.90;69.30;;;;;;5056176;28;20106;-79
2021/01/10 03:49:21;;;;;;;38.05;30.58;;;2.80;69.20;;;;;;5057023;28;20059;-81
2021/01/10 03:51:47;;;;;;;37.20;29.70;;;2.80;69.20;;;;;;5039761;28;20041;-81
2021/01/10 03:54:13;;;;;;;36.58;28.48;;;2.80;69.20;;;;;;5056910;28;20056;-82
2021/01/10 03:56:39;;;;;;;40.00;30.63;;;2.70;69.10;;;;;;5057542;28;20036;-80
2021/01/10 03:59:05;;;;;;;40.70;30.15;;;2.70;69.10;;;;;;5054818;28;20054;-79
2021/01/10 04:01:31;;;;;;;37.00;30.42;;;2.70;69.10;;;;;;5056115;28;20029;-81
2021/01/10 04:03:57;;;;;;;40.47;31.35;;;2.60;69.00;;;;;;5056407;28;20094;-80
2021/01/10 04:06:23;;;;;;;37.83;30.15;;;2.60;69.00;;;;;;5056878;28;20120;-78
2021/01/10 04:08:49;;;;;;;41.17;32.70;;;2.60;69.00;;;;;;5056070;28;20064;-80
2021/01/10 04:11:15;;;;;;;38.67;30.17;;;2.50;68.90;;;;;;5056051;28;20117;-77
2021/01/10 04:13:41;;;;;;;39.25;29.02;;;2.50;69.40;;;;;;5055940;28;20037;-80
2021/01/10 04:16:07;;;;;;;39.92;31.38;;;2.50;68.90;;;;;;5055635;28;20060;-80
2021/01/10 04:18:34;;;;;;;42.00;30.70;;;2.40;68.80;;;;;;5056762;28;20536;-80
2021/01/10 04:21:02;;;;;;;40.35;29.98;;;2.40;68.80;;;;;;5055530;28;20115;-81
2021/01/10 04:23:28;;;;;;;39.78;31.45;;;2.30;68.70;;;;;;5056334;28;20046;-80
2021/01/10 04:25:54;;;;;;;42.15;30.10;;;2.30;68.70;;;;;;5056571;28;20211;-80
2021/01/10 04:28:20;;;;;;;39.83;31.73;;;2.30;68.70;;;;;;5055467;28;20052;-80
2021/01/10 04:30:46;;;;;;;41.72;31.40;;;2.30;68.70;;;;;;5056170;28;20060;-79
2021/01/10 04:33:12;;;;;;;41.67;31.70;;;2.30;68.70;;;;;;5055316;28;20043;-81
2021/01/10 04:35:38;;;;;;;40.40;29.83;;;2.20;68.60;;;;;;5056903;28;20461;-80
2021/01/10 04:38:04;;;;;;;46.05;32.42;;;2.20;68.60;;;;;;5056285;28;20032;-81
2021/01/10 04:40:30;;;;;;;40.30;31.13;;;2.20;68.60;;;;;;5055718;28;20037;-80
2021/01/10 04:42:56;;;;;;;40.50;28.70;;;2.20;68.60;;;;;;5055498;28;20054;-81
2021/01/10 04:45:22;;;;;;;46.03;33.25;;;2.10;68.50;;;;;;5054923;28;20052;-80
2021/01/10 04:47:49;;;;;;;43.85;31.83;;;2.10;68.50;;;;;;5053824;28;20060;-80
2021/01/10 04:50:16;;;;;;;42.22;31.88;;;2.10;68.50;;;;;;5053270;28;20037;-80
2021/01/10 04:52:44;;;;;;;45.90;31.70;;;2.10;68.50;;;;;;5053588;28;20120;-80
2021/01/10 04:55:11;;;;;;;36.08;29.50;;;2.10;68.60;;;;;;5053833;28;20032;-80
2021/01/10 04:57:41;;;;;;;42.80;31.00;;;2.00;68.40;;;;;;5053278;28;20035;-80
2021/01/10 05:00:10;;;;;;;36.85;29.73;;;2.00;68.40;;;;;;5053563;28;20029;-82
2021/01/10 05:02:46;;;;;;;47.05;31.13;;;2.00;68.50;;;;;;5052556;28;20041;-78
2021/01/10 05:05:14;;;;;;;39.60;30.75;;;1.90;68.30;;;;;;5052331;28;20400;-78
2021/01/10 05:07:43;;;;;;;41.53;31.27;;;1.90;68.30;;;;;;5052225;28;20036;-78
2021/01/10 05:10:10;;;;;;;44.85;29.77;;;1.90;68.30;;;;;;5051154;28;20047;-80
2021/01/10 05:12:36;;;;;;;41.72;32.45;;;1.90;68.40;;;;;;5052837;28;20033;-78
2021/01/10 05:15:02;;;;;;;36.47;28.40;;;1.80;68.20;;;;;;5052136;28;20025;-81
2021/01/10 05:17:31;;;;;;;41.78;32.25;;;1.80;68.30;;;;;;5053128;28;20040;-81
2021/01/10 05:19:57;;;;;;;45.50;31.02;;;1.80;68.30;;;;;;5051958;28;20575;-80
2021/01/10 05:22:23;;;;;;;39.70;30.00;;;1.80;68.30;;;;;;5053017;28;20029;-81
2021/01/10 05:24:49;;;;;;;43.53;31.10;;;1.80;68.30;;;;;;5051322;28;20424;-80
2021/01/10 05:27:15;;;;;;;39.13;31.15;;;1.70;68.10;;;;;;5052414;28;20040;-79
2021/01/10 05:29:46;;;;;;;41.50;30.45;;;1.80;68.30;;;;;;5052610;28;20025;-81
2021/01/10 05:32:12;;;;;;;36.60;29.90;;;1.70;68.20;;;;;;5051079;28;20040;-81
2021/01/10 05:34:38;;;;;;;38.00;29.83;;;1.70;68.20;;;;;;5053085;28;20158;-80
2021/01/10 05:37:14;;;;;;;37.28;29.83;;;1.70;68.20;;;;;;5052872;28;20025;-80
2021/01/10 05:39:45;;;;;;;44.92;30.40;;;1.70;68.20;;;;;;5032547;28;20045;-81
2021/01/10 05:42:13;;;;;;;37.70;29.20;;;1.70;68.20;;;;;;5031708;28;20057;-80
2021/01/10 05:44:39;;;;;;;40.78;30.45;;;1.60;68.00;;;;;;5032001;28;20527;-80
2021/01/10 05:47:06;;;;;;;38.95;30.10;;;1.60;68.10;;;;;;5032187;28;20025;-79
2021/01/10 05:49:33;;;;;;;43.78;30.73;;;1.60;68.10;;;;;;5043316;28;20070;-80
2021/01/10 05:52:09;;;;;;;37.65;30.98;;;1.60;68.10;;;;;;5028130;28;20080;-78
2021/01/10 05:54:46;;;;;;;42.60;31.08;;;1.50;67.90;;;;;;5028619;28;20031;-79
2021/01/10 05:57:14;;;;;;;35.63;30.35;;;1.60;68.10;;;;;;5028606;28;20057;-80
2021/01/10 05:59:51;;;;;;;41.42;28.65;;;1.50;67.90;;;;;;5031134;28;20094;-79
2021/01/10 06:02:31;;;;;;;41.08;32.25;;;1.50;68.00;;;;;;5047718;28;20047;-78
2021/01/10 06:05:20;;;;;;;38.33;28.92;;;1.50;68.00;;;;;;5026737;28;20461;-80
2021/01/10 06:07:48;;;;;;;36.47;28.70;;;1.50;68.00;;;;;;5029422;28;20036;-80
2021/01/10 06:10:26;;;;;;;39.50;28.67;;;1.40;67.80;;;;;;5046867;28;20029;-80
2021/01/10 06:13:06;;;;;;;37.72;30.02;;;1.40;67.90;;;;;;5046548;28;20192;-80
2021/01/10 06:15:33;;;;;;;38.05;28.70;;;1.40;67.90;;;;;;5044594;28;20816;-79
2021/01/10 06:18:04;;;;;;;37.75;29.52;;;1.40;68.00;;;;;;5046214;28;20041;-80
2021/01/10 06:20:34;;;;;;;36.70;29.13;;;1.30;67.80;;;;;;5045695;28;20457;-80
2021/01/10 06:23:02;;;;;;;38.15;28.77;;;1.30;67.80;;;;;;5046628;28;20025;-79
2021/01/10 06:25:30;;;;;;;37.60;28.25;;;1.30;67.80;;;;;;5046733;28;20504;-80
2021/01/10 06:28:08;;;;;;;37.60;28.48;;;1.30;67.80;;;;;;5046616;28;20075;-80
2021/01/10 06:30:37;;;;;;;38.15;29.25;;;1.30;67.80;;;;;;5046363;28;20665;-79
2021/01/10 06:33:10;;;;;;;41.33;28.80;;;1.30;67.90;;;;;;5045886;28;20037;-79
2021/01/10 06:35:43;;;;;;;42.35;30.13;;;1.30;67.80;;;;;;5047143;28;20124;-77
2021/01/10 06:38:11;;;;;;;40.43;28.87;;;1.30;67.80;;;;;;5045872;28;20027;-80
2021/01/10 06:40:41;;;;;;;42.25;28.45;;;1.30;67.80;;;;;;5047682;28;20033;-80
2021/01/10 06:43:08;;;;;;;36.00;27.98;;;1.30;67.90;;;;;;5047053;28;20051;-82
2021/01/10 06:45:38;;;;;;;34.33;27.45;;;1.30;68.40;;;;;;5047103;28;20039;-81
2021/01/10 06:48:04;;;;;;;36.13;29.17;;;1.20;67.70;;;;;;5047129;28;20083;-76
2021/01/10 06:50:32;;;;;;;35.47;26.38;;;1.20;67.70;;;;;;5045490;28;20128;-73
2021/01/10 06:53:11;;;;;;;39.13;27.33;;;1.20;67.80;;;;;;5043753;28;20385;-74
2021/01/10 06:55:39;;;;;;;36.42;24.95;;;1.30;68.20;;;;;;5043913;28;20029;-76
2021/01/10 06:58:09;;;;;;;41.28;28.55;;;1.30;68.20;;;;;;5044874;28;20039;-77
2021/01/10 07:00:58;;;;;;;37.53;29.95;;;1.40;68.40;;;;;;5045089;28;20442;-76
2021/01/10 07:03:25;;;;;;;39.50;29.23;;;1.40;68.30;;;;;;5043640;28;20032;-75
2021/01/10 07:06:12;;;;;;;45.20;30.30;;;1.50;68.40;;;;;;5044987;28;20064;-76
2021/01/10 07:08:53;;;;;;;41.63;28.63;;;1.50;68.30;;;;;;5026944;28;20040;-76
2021/01/10 07:11:22;;;;;;;41.97;27.95;;;1.60;68.40;;;;;;5044261;28;20043;-75
2021/01/10 07:14:12;;;;;;;38.22;27.00;;;1.70;68.60;;;;;;5024654;28;20119;-75
2021/01/10 07:16:43;;;;;;;40.08;28.98;;;1.70;68.50;;;;;;5043695;28;20041;-75
2021/01/10 07:19:11;;;;;;;39.53;27.17;;;1.80;68.70;;;;;;5044448;28;20021;-73
2021/01/10 07:21:45;;;;;;;43.05;30.17;;;1.80;68.60;;;;;;5045088;28;20040;-74
2021/01/10 07:24:21;;;;;;;38.85;28.13;;;1.90;68.80;;;;;;5044792;28;20048;-74
2021/01/10 07:26:47;;;;;;;39.00;27.60;;;2.00;68.90;;;;;;5026769;28;20037;-74
2021/01/10 07:29:35;;;;;;;40.50;29.70;;;2.00;68.90;;;;;;5038896;28;20033;-74
2021/01/10 07:32:09;;;;;;;36.67;28.23;;;2.00;68.90;;;;;;5040779;28;20040;-73
2021/01/10 07:34:55;;;;;;;40.65;28.27;;;2.10;69.10;;;;;;5037020;28;20028;-78
2021/01/10 07:37:28;;;;;;;38.95;27.58;;;2.20;69.20;;;;;;5032975;28;20048;-75
2021/01/10 07:40:08;;;;;;;40.60;28.60;;;2.20;69.10;;;;;;5034892;28;20471;-76
2021/01/10 07:42:36;;;;;;;45.42;30.60;;;2.20;69.20;;;;;;5040513;28;20056;-75
2021/01/10 07:45:17;;;;;;;41.53;29.85;;;2.30;69.30;;;;;;5043257;28;20071;-76
2021/01/10 07:47:45;;;;;;;42.17;28.30;;;2.30;69.40;;;;;;5042250;28;20051;-72
2021/01/10 07:50:18;;;;;;;36.90;28.40;;;2.30;69.30;;;;;;5045007;28;20529;-74
2021/01/10 07:52:49;;;;;;;40.25;29.52;;;2.40;69.60;;;;;;5044639;28;20060;-75
2021/01/10 07:55:18;;;;;;;40.45;27.75;;;2.40;69.50;;;;;;5046130;28;20100;-76
2021/01/10 07:57:52;;;;;;;38.50;29.63;;;2.40;69.50;;;;;;5046418;28;20064;-76
2021/01/10 08:00:27;;;;;;;39.35;29.92;;;2.40;69.60;;;;;;5026380;28;20021;-76
2021/01/10 08:02:55;;;;;;;39.85;29.83;;;2.50;69.80;;;;;;5043210;28;20079;-76
2021/01/10 08:05:22;;;;;;;42.25;31.55;;;2.50;69.70;;;;;;5044023;28;20457;-76
2021/01/10 08:08:04;;;;;;;38.35;29.45;;;2.50;69.80;;;;;;5042274;28;20029;-77
2021/01/10 08:10:49;;;;;;;42.25;30.52;;;2.50;69.80;;;;;;5044179;28;20033;-77
2021/01/10 08:13:45;;;;;;;39.92;30.20;;;2.50;69.80;;;;;;5044176;28;20807;-78
2021/01/10 08:16:30;;;;;;;37.88;28.13;;;2.50;69.90;;;;;;5034202;28;20090;-76
2021/01/10 08:19:04;;;;;;;46.13;30.02;;;2.60;70.00;;;;;;5042842;28;20593;-74
2021/01/10 08:21:31;;;;;;;43.92;29.88;;;2.60;70.10;;;;;;5043700;28;20033;-75
2021/01/10 08:23:58;;;;;;;43.70;30.15;;;2.60;70.10;;;;;;5045410;28;20085;-74
2021/01/10 08:26:24;;;;;;;39.78;30.60;;;2.70;70.20;;;;;;5047239;28;20036;-75
2021/01/10 08:28:52;;;;;;;37.75;28.23;;;2.70;70.20;;;;;;5046167;28;20048;-75
2021/01/10 08:31:24;;;;;;;38.28;30.65;;;2.70;70.10;;;;;;5047690;28;20485;-75
2021/01/10 08:34:13;;;;;;;38.35;28.52;;;2.60;69.90;;;;;;5046860;28;20134;-76
2021/01/10 08:36:39;;;;;;;41.90;29.13;;;2.60;69.90;;;;;;5047343;28;20029;-77
2021/01/10 08:39:07;;;;;;;42.60;30.20;;;2.60;69.90;;;;;;5046681;28;20044;-76
2021/01/10 08:41:35;;;;;;;43.88;30.88;;;2.60;70.20;;;;;;5047195;28;20029;-75
2021/01/10 08:44:02;;;;;;;41.17;31.92;;;2.60;70.30;;;;;;5047358;28;20489;-75
2021/01/10 08:46:29;;;;;;;46.60;33.30;;;2.70;70.50;;;;;;5047001;28;20541;-78
2021/01/10 08:48:56;;;;;;;41.75;31.65;;;2.70;70.50;;;;;;5046672;28;20673;-76
2021/01/10 08:51:35;;;;;;;45.08;30.90;;;2.80;70.60;;;;;;5047558;28;20067;-76
2021/01/10 08:54:07;;;;;;;40.67;30.60;;;2.80;70.60;;;;;;5046677;28;20053;-74
2021/01/10 08:56:34;;;;;;;42.15;29.10;;;2.80;70.50;;;;;;5029000;28;20029;-75
2021/01/10 08:59:01;;;;;;;44.72;31.35;;;2.80;70.50;;;;;;5046915;28;20044;-75
2021/01/10 09:01:28;;;;;;;41.80;31.55;;;2.80;70.40;;;;;;5046715;28;20029;-76
2021/01/10 09:04:12;;;;;;;41.33;31.92;;;2.70;70.30;;;;;;5046760;28;20036;-77
2021/01/10 09:07:00;;;;;;;43.05;28.63;;;2.70;70.30;;;;;;5047372;28;20041;-77
2021/01/10 09:09:32;;;;;;;48.25;31.83;;;2.70;70.50;;;;;;5035293;28;20040;-77
2021/01/10 09:12:21;;;;;;;38.95;29.25;;;2.80;70.80;;;;;;5036859;28;20447;-78
2021/01/10 09:15:03;;;;;;;44.88;32.05;;;2.80;70.80;;;;;;5035454;28;20045;-77
2021/01/10 09:17:38;;;;;;;39.25;29.10;;;2.90;70.90;;;;;;5032760;28;20032;-78
2021/01/10 09:20:08;;;;;;;39.97;31.42;;;2.90;70.80;;;;;;5037599;28;20025;-77
2021/01/10 09:22:35;;;;;;;38.95;30.08;;;2.90;70.70;;;;;;5035224;28;20036;-77
2021/01/10 09:25:10;;;;;;;42.35;33.20;;;3.00;70.90;;;;;;5044854;28;20033;-76
2021/01/10 09:27:37;;;;;;;39.08;29.55;;;3.00;70.90;;;;;;5028503;28;20329;-77
2021/01/10 09:30:05;;;;;;;39.30;31.85;;;3.00;70.90;;;;;;5046238;28;20028;-76
2021/01/10 09:32:32;;;;;;;43.05;33.63;;;3.00;70.90;;;;;;5045782;28;20625;-78
2021/01/10 09:34:59;;;;;;;44.80;33.88;;;3.00;70.90;;;;;;5027643;28;20365;-77
2021/01/10 09:37:30;;;;;;;44.08;31.88;;;3.00;70.90;;;;;;5046558;28;20029;-77
2021/01/10 09:40:12;;;;;;;60.08;36.53;;;3.00;70.90;;;;;;5030691;28;20049;-77
2021/01/10 09:42:49;;;;;;;45.13;33.30;;;3.00;71.00;;;;;;5037024;28;20033;-79
2021/01/10 09:45:16;;;;;;;51.33;35.25;;;3.10;71.20;;;;;;5024825;28;20057;-77
2021/01/10 09:47:43;;;;;;;52.92;34.70;;;3.10;71.20;;;;;;5025185;28;20468;-75
2021/01/10 09:50:14;;;;;;;49.15;35.33;;;3.10;71.20;;;;;;5033607;28;20492;-78
2021/01/10 09:52:53;;;;;;;51.15;35.92;;;3.10;71.20;;;;;;5039001;28;20051;-78
2021/01/10 09:55:25;;;;;;;49.55;35.67;;;3.20;71.40;;;;;;5036590;28;20070;-79
2021/01/10 09:57:52;;;;;;;48.78;35.60;;;3.20;71.50;;;;;;5045295;28;20096;-79
2021/01/10 10:00:19;;;;;;;57.03;36.83;;;3.30;71.70;;;;;;5045438;28;20052;-77
2021/01/10 10:02:47;;;;;;;48.90;34.17;;;3.30;71.70;;;;;;5045261;28;20033;-78
2021/01/10 10:05:15;;;;;;;44.97;34.28;;;3.40;71.90;;;;;;5042024;28;20427;-78
2021/01/10 10:07:45;;;;;;;56.13;35.53;;;3.50;72.10;;;;;;5045794;28;20594;-78
2021/01/10 10:10:31;;;;;;;52.13;36.45;;;3.50;72.00;;;;;;5036809;28;20590;-78
2021/01/10 10:13:10;;;;;;;51.60;34.97;;;3.60;72.30;;;;;;5037575;28;20037;-78
2021/01/10 10:15:45;;;;;;;53.25;33.40;;;3.60;72.30;;;;;;5042704;28;20027;-77
2021/01/10 10:18:20;;;;;;;48.75;34.42;;;3.80;72.60;;;;;;5023641;28;20059;-77
2021/01/10 10:20:46;;;;;;;48.75;34.67;;;3.80;72.60;;;;;;5023553;28;20033;-76
2021/01/10 10:23:14;;;;;;;54.08;37.53;;;3.90;72.70;;;;;;5035321;28;20064;-75
2021/01/10 10:25:50;;;;;;;45.28;34.17;;;3.90;72.60;;;;;;5023250;28;20032;-75
2021/01/10 10:28:17;;;;;;;48.42;35.00;;;4.00;73.30;;;;;;5043171;28;20435;-75
2021/01/10 10:30:44;;;;;;;45.05;33.72;;;4.00;72.70;;;;;;5037592;28;20029;-74
2021/01/10 10:33:11;;;;;;;49.97;35.28;;;4.10;72.80;;;;;;5042791;28;20095;-74
2021/01/10 10:35:37;;;;;;;48.38;34.85;;;4.10;72.70;;;;;;5042953;28;20859;-75
2021/01/10 10:38:04;;;;;;;47.85;35.40;;;4.10;72.70;;;;;;5044146;28;20480;-76
2021/01/10 10:40:30;;;;;;;47.67;36.45;;;4.10;72.70;;;;;;5044279;28;20040;-76
2021/01/10 10:42:57;;;;;;;49.13;34.60;;;4.20;72.90;;;;;;5043694;28;20079;-77
2021/01/10 10:45:23;;;;;;;49.08;35.00;;;4.20;72.90;;;;;;5043696;28;20082;-76
2021/01/10 10:47:49;;;;;;;49.88;33.47;;;4.20;72.90;;;;;;5042329;28;20048;-77
2021/01/10 10:50:15;;;;;;;45.33;34.20;;;4.20;72.90;;;;;;5026675;28;20052;-76
2021/01/10 10:52:42;;;;;;;45.42;34.83;;;4.20;72.90;;;;;;5042346;28;20388;-75
2021/01/10 10:55:11;;;;;;;46.78;36.85;;;4.20;72.90;;;;;;5026237;28;20448;-75
2021/01/10 10:57:47;;;;;;;48.70;37.78;;;4.30;73.10;;;;;;5041105;28;20750;-77
2021/01/10 11:00:13;;;;;;;51.25;38.45;;;4.30;73.10;;;;;;5042834;28;20624;-75
2021/01/10 11:02:39;;;;;;;49.33;38.33;;;4.30;73.20;;;;;;5043242;28;20037;-74
2021/01/10 11:05:07;;;;;;;48.72;36.30;;;4.40;73.50;;;;;;5044116;28;20028;-75
2021/01/10 11:07:36;;;;;;;54.22;39.33;;;4.40;73.50;;;;;;5043794;28;20507;-75
2021/01/10 11:10:04;;;;;;;47.10;36.22;;;4.40;73.50;;;;;;5044721;28;20052;-75
2021/01/10 11:12:32;;;;;;;49.60;35.65;;;4.50;73.70;;;;;;5042546;28;20443;-76
2021/01/10 11:14:59;;;;;;;55.03;41.28;;;4.50;73.70;;;;;;5040730;28;20025;-77
2021/01/10 11:17:25;;;;;;;49.05;37.78;;;4.60;73.90;;;;;;5041902;28;20035;-76
2021/01/10 11:19:51;;;;;;;49.22;38.05;;;4.60;73.90;;;;;;5025628;28;20368;-75
2021/01/10 11:22:17;;;;;;;49.80;38.72;;;4.70;74.00;;;;;;5039776;28;20091;-79
2021/01/10 11:24:43;;;;;;;47.80;36.85;;;4.70;74.00;;;;;;5043325;28;20467;-75
2021/01/10 11:27:10;;;;;;;54.47;41.35;;;4.80;74.20;;;;;;5030521;28;20112;-76
2021/01/10 11:29:36;;;;;;;49.70;39.40;;;4.90;74.40;;;;;;5038359;28;20033;-74
2021/01/10 11:32:04;;;;;;;52.50;41.03;;;4.90;74.40;;;;;;5025618;28;20037;-74
2021/01/10 11:34:30;;;;;;;54.03;39.85;;;5.00;74.60;;;;;;5042431;28;20041;-75
2021/01/10 11:36:57;;;;;;;53.53;40.65;;;5.10;74.70;;;;;;5025763;28;20120;-76
2021/01/10 11:39:27;;;;;;;54.22;39.75;;;5.10;74.60;;;;;;5042322;28;20189;-77
2021/01/10 11:41:55;;;;;;;49.63;39.83;;;5.20;74.70;;;;;;5044090;28;20037;-78
2021/01/10 11:44:23;;;;;;;50.90;39.58;;;5.30;74.80;;;;;;5026062;28;20102;-78
2021/01/10 11:46:52;;;;;;;53.80;41.03;;;5.30;74.80;;;;;;5043641;28;20082;-78
2021/01/10 11:49:19;;;;;;;50.28;38.92;;;5.30;74.80;;;;;;5041464;28;20126;-79
2021/01/10 11:51:46;;;;;;;49.88;38.28;;;5.40;74.90;;;;;;5044295;28;20029;-78
2021/01/10 11:54:15;;;;;;;52.95;40.40;;;5.40;74.90;;;;;;5042539;28;20159;-80
2021/01/10 11:56:42;;;;;;;54.13;40.50;;;5.50;75.00;;;;;;5027035;28;20028;-80
2021/01/10 11:59:08;;;;;;;46.72;38.70;;;5.50;75.00;;;;;;5030117;28;20037;-78
2021/01/10 12:01:36;;;;;;;52.05;39.28;;;5.60;75.10;;;;;;5047896;28;20036;-78
2021/01/10 12:04:04;;;;;;;54.97;39.55;;;5.60;75.10;;;;;;5049794;28;20067;-75
2021/01/10 12:06:31;;;;;;;50.17;39.65;;;5.60;75.00;;;;;;5048677;28;20033;-77
2021/01/10 12:08:57;;;;;;;49.75;36.97;;;5.70;75.20;;;;;;5030114;28;20102;-76
2021/01/10 12:11:23;;;;;;;48.13;36.22;;;5.70;75.20;;;;;;5048151;28;20124;-76
2021/01/10 12:13:51;;;;;;;44.97;36.78;;;5.70;75.10;;;;;;5046029;28;20049;-76
2021/01/10 12:16:19;;;;;;;47.15;38.33;;;5.80;75.30;;;;;;5030094;28;20029;-79
2021/01/10 12:18:46;;;;;;;49.67;38.85;;;5.80;75.20;;;;;;5047463;28;20037;-80
2021/01/10 12:21:15;;;;;;;42.00;35.60;;;5.90;75.30;;;;;;5047204;28;20028;-80
2021/01/10 12:23:42;;;;;;;46.95;38.22;;;5.90;75.30;;;;;;5048970;28;20417;-80
2021/01/10 12:26:16;;;;;;;47.22;36.63;;;6.00;75.40;;;;;;5048166;28;20101;-77
2021/01/10 12:28:43;;;;;;;48.65;37.90;;;6.00;75.30;;;;;;5046442;28;20578;-81
2021/01/10 12:31:09;;;;;;;44.17;35.72;;;6.00;75.30;;;;;;5048429;28;20140;-80
2021/01/10 12:33:38;;;;;;;45.55;37.92;;;6.10;75.40;;;;;;5049297;28;20219;-84
2021/01/10 12:36:06;;;;;;;43.53;34.65;;;6.10;75.30;;;;;;5047646;28;20098;-80
2021/01/10 12:38:32;;;;;;;47.45;36.85;;;6.10;75.30;;;;;;5047432;28;20116;-83
2021/01/10 12:40:58;;;;;;;46.33;36.60;;;6.20;75.40;;;;;;5047047;28;20033;-81
2021/01/10 12:43:24;;;;;;;46.22;36.50;;;6.20;75.40;;;;;;5046428;28;20024;-82
2021/01/10 12:45:50;;;;;;;48.53;37.47;;;6.20;75.40;;;;;;5045844;28;20075;-80
2021/01/10 12:48:19;;;;;;;45.28;36.60;;;6.30;75.60;;;;;;5045331;28;20061;-79
2021/01/10 12:50:46;;;;;;;48.95;36.80;;;6.30;75.50;;;;;;5046927;28;20056;-79